Time;durP1;ratioP1;P1;durP2;ratioP2;P2;SDS_P1;SDS_P2;PMS_P1;PMS_P2;Temp;Humidity;BMP_temperature;BMP_pressure;BME280_temperature;BME280_humidity;BME280_pressure;Samples;Min_cycle;Max_cycle;Signal;HPM_P1;HPM_P2
2023/04/17 00:01:49;;;;;;;36.22;19.98;;;8.20;99.90;;;;;;5052861;28;20045;-78
2023/04/17 00:04:14;;;;;;;31.13;19.58;;;8.20;99.90;;;;;;5052781;28;20041;-78
2023/04/17 00:06:43;;;;;;;32.50;19.20;;;8.20;99.90;;;;;;5052374;28;20037;-78
2023/04/17 00:09:09;;;;;;;32.42;19.48;;;8.10;99.90;;;;;;5052471;28;20041;-78
2023/04/17 00:11:34;;;;;;;31.52;19.67;;;8.10;99.90;;;;;;5053149;28;20045;-78
2023/04/17 00:14:00;;;;;;;32.97;20.15;;;8.00;99.90;;;;;;5053883;28;20048;-78
2023/04/17 00:16:26;;;;;;;35.03;20.65;;;8.10;99.90;;;;;;5052858;28;20037;-78
2023/04/17 00:18:53;;;;;;;34.47;21.33;;;8.10;99.90;;;;;;5052324;28;20505;-79
2023/04/17 00:21:18;;;;;;;40.00;21.90;;;8.10;99.90;;;;;;5052465;28;20130;-79
2023/04/17 00:23:44;;;;;;;37.33;21.67;;;8.10;99.90;;;;;;5052242;28;20049;-79
2023/04/17 00:26:10;;;;;;;32.45;20.75;;;8.10;99.90;;;;;;5052797;28;20025;-79
2023/04/17 00:28:36;;;;;;;37.25;21.63;;;8.10;99.90;;;;;;5053779;28;20102;-79
2023/04/17 00:31:03;;;;;;;36.97;22.15;;;8.20;99.90;;;;;;5052579;28;20068;-79
2023/04/17 00:33:30;;;;;;;35.40;21.88;;;8.20;99.90;;;;;;5053515;28;20095;-78
2023/04/17 00:35:55;;;;;;;37.67;21.77;;;8.20;99.90;;;;;;5052308;28;20037;-79
2023/04/17 00:38:21;;;;;;;33.00;19.88;;;8.10;99.90;;;;;;5052362;28;20039;-79
2023/04/17 00:40:47;;;;;;;36.45;21.58;;;8.10;99.90;;;;;;5052211;28;20048;-79
2023/04/17 00:43:13;;;;;;;33.95;21.00;;;8.00;99.90;;;;;;5052263;28;20131;-78
2023/04/17 00:45:40;;;;;;;33.72;21.42;;;8.00;99.90;;;;;;5052101;28;20416;-79
2023/04/17 00:48:07;;;;;;;37.97;22.25;;;7.90;99.90;;;;;;5051683;28;20041;-79
2023/04/17 00:50:34;;;;;;;34.75;21.13;;;7.90;99.90;;;;;;5053201;28;20377;-79
2023/04/17 00:53:00;;;;;;;32.88;20.55;;;7.90;99.90;;;;;;5035741;28;20468;-79
2023/04/17 00:55:29;;;;;;;33.95;20.70;;;8.00;99.90;;;;;;5053255;28;20045;-78
2023/04/17 00:57:55;;;;;;;35.67;20.73;;;8.00;99.90;;;;;;5051620;28;20493;-79
2023/04/17 01:00:21;;;;;;;34.03;19.67;;;7.90;99.90;;;;;;5051828;28;20091;-79
2023/04/17 01:02:47;;;;;;;33.20;20.88;;;7.90;99.90;;;;;;5051868;28;20041;-79
2023/04/17 01:05:13;;;;;;;34.38;19.75;;;7.90;99.90;;;;;;5053100;28;20497;-78
2023/04/17 01:07:40;;;;;;;33.83;19.58;;;7.90;99.90;;;;;;5051698;28;20045;-79
2023/04/17 01:10:06;;;;;;;34.05;21.25;;;7.80;99.90;;;;;;5052212;28;20377;-79
2023/04/17 01:12:31;;;;;;;33.85;19.90;;;7.80;99.90;;;;;;5052096;28;20124;-78
2023/04/17 01:14:57;;;;;;;33.97;20.23;;;7.80;99.90;;;;;;5053042;28;20465;-79
2023/04/17 01:17:25;;;;;;;33.22;20.25;;;7.80;99.90;;;;;;5051460;28;20414;-79
2023/04/17 01:19:51;;;;;;;32.47;19.80;;;7.80;99.90;;;;;;5053041;28;20106;-78
2023/04/17 01:22:20;;;;;;;34.50;19.98;;;7.80;99.90;;;;;;5051220;28;20051;-78
2023/04/17 01:24:47;;;;;;;35.70;20.30;;;7.80;99.90;;;;;;5051213;28;20040;-79
2023/04/17 01:27:12;;;;;;;34.85;20.30;;;7.70;99.90;;;;;;5050890;28;20049;-79
2023/04/17 01:29:39;;;;;;;35.28;20.42;;;7.70;99.90;;;;;;5034692;28;20041;-79
2023/04/17 01:32:05;;;;;;;32.97;20.00;;;7.60;99.90;;;;;;5035036;28;20048;-79
2023/04/17 01:34:31;;;;;;;36.40;20.95;;;7.60;99.90;;;;;;5051322;28;20052;-79
2023/04/17 01:36:56;;;;;;;36.28;20.35;;;7.50;99.90;;;;;;5051246;28;20053;-79
2023/04/17 01:39:22;;;;;;;37.63;22.10;;;7.50;99.90;;;;;;5051166;28;20048;-79
2023/04/17 01:41:47;;;;;;;37.92;20.17;;;7.50;99.90;;;;;;5061289;28;20063;-79
2023/04/17 01:44:13;;;;;;;38.67;21.92;;;7.50;99.90;;;;;;5072565;28;20044;-79
2023/04/17 01:46:39;;;;;;;34.58;20.42;;;7.50;99.90;;;;;;5056982;28;20048;-79
2023/04/17 01:49:04;;;;;;;37.53;21.27;;;7.50;99.90;;;;;;5051106;28;20505;-79
2023/04/17 01:51:30;;;;;;;42.13;21.27;;;7.50;99.90;;;;;;5051028;28;20083;-78
2023/04/17 01:53:55;;;;;;;47.65;21.17;;;7.40;99.90;;;;;;5050681;28;20548;-78
2023/04/17 01:56:21;;;;;;;39.03;20.52;;;7.40;99.90;;;;;;5052095;28;20072;-79
2023/04/17 01:58:47;;;;;;;41.78;22.13;;;7.40;99.90;;;;;;5052509;28;20056;-80
2023/04/17 02:01:12;;;;;;;37.42;20.40;;;7.40;99.90;;;;;;5052552;28;20082;-79
2023/04/17 02:03:38;;;;;;;38.42;20.75;;;7.40;99.90;;;;;;5051010;28;20047;-79
2023/04/17 02:06:04;;;;;;;36.28;21.08;;;7.40;99.90;;;;;;5052148;28;20517;-79
2023/04/17 02:08:29;;;;;;;50.45;22.42;;;7.40;99.90;;;;;;5052124;28;20085;-79
2023/04/17 02:10:55;;;;;;;81.07;22.33;;;7.40;99.90;;;;;;5051040;28;20065;-79
2023/04/17 02:13:20;;;;;;;47.30;20.70;;;7.40;99.90;;;;;;5052432;28;20059;-79
2023/04/17 02:15:46;;;;;;;39.00;21.90;;;7.40;99.90;;;;;;5052168;28;20033;-79
2023/04/17 02:18:12;;;;;;;37.35;20.75;;;7.30;99.90;;;;;;5050612;28;20044;-79
2023/04/17 02:20:38;;;;;;;45.80;21.48;;;7.30;99.90;;;;;;5050821;28;20052;-79
2023/04/17 02:23:05;;;;;;;46.30;21.02;;;7.30;99.90;;;;;;5051210;28;20049;-79
2023/04/17 02:25:31;;;;;;;48.97;21.98;;;7.30;99.90;;;;;;5052585;28;20091;-79
2023/04/17 02:27:56;;;;;;;39.45;20.33;;;7.30;99.90;;;;;;5050399;28;20076;-79
2023/04/17 02:30:23;;;;;;;47.15;19.92;;;7.30;99.90;;;;;;5051814;28;20090;-79
2023/04/17 02:32:53;;;;;;;63.78;20.73;;;7.30;99.90;;;;;;5052118;28;20052;-79
2023/04/17 02:35:20;;;;;;;55.72;21.73;;;7.30;99.90;;;;;;5051773;28;20040;-79
2023/04/17 02:37:46;;;;;;;62.55;21.65;;;7.30;99.90;;;;;;5051532;28;20063;-79
2023/04/17 02:40:13;;;;;;;65.45;19.83;;;7.30;99.90;;;;;;5052721;28;20427;-79
2023/04/17 02:42:38;;;;;;;65.90;20.58;;;7.30;99.90;;;;;;5055603;28;20048;-79
2023/04/17 02:45:05;;;;;;;43.15;18.30;;;7.20;99.90;;;;;;5070418;28;20037;-79
2023/04/17 02:47:30;;;;;;;59.40;18.45;;;7.20;99.90;;;;;;5070283;28;20044;-78
2023/04/17 02:49:58;;;;;;;53.78;18.90;;;7.20;99.90;;;;;;5055519;28;20109;-78
2023/04/17 02:52:29;;;;;;;64.18;18.38;;;7.20;99.90;;;;;;5053958;28;20492;-79
2023/04/17 02:54:55;;;;;;;63.28;18.60;;;7.20;99.90;;;;;;5054455;28;20179;-79
2023/04/17 02:57:22;;;;;;;40.97;17.35;;;7.20;99.90;;;;;;5054783;28;20072;-79
2023/04/17 02:59:48;;;;;;;41.92;18.05;;;7.20;99.90;;;;;;5053861;28;20053;-79
2023/04/17 03:02:13;;;;;;;42.33;16.63;;;7.10;99.90;;;;;;5055067;28;20409;-79
2023/04/17 03:04:39;;;;;;;30.60;17.58;;;7.10;99.90;;;;;;5053057;28;20340;-79
2023/04/17 03:07:05;;;;;;;29.98;16.95;;;7.10;99.90;;;;;;5053725;28;20084;-79
2023/04/17 03:09:32;;;;;;;28.67;16.38;;;7.10;99.90;;;;;;5054116;28;20052;-79
2023/04/17 03:11:58;;;;;;;29.13;16.58;;;7.00;99.90;;;;;;5055195;28;20033;-78
2023/04/17 03:14:24;;;;;;;29.75;17.08;;;7.10;99.90;;;;;;5055232;28;20471;-79
2023/04/17 03:16:49;;;;;;;32.45;17.35;;;7.10;99.90;;;;;;5055458;28;20037;-79
2023/04/17 03:19:15;;;;;;;35.00;18.08;;;7.10;99.90;;;;;;5054166;28;20083;-79
2023/04/17 03:21:40;;;;;;;57.22;17.50;;;7.20;99.90;;;;;;5054156;28;20064;-79
2023/04/17 03:24:06;;;;;;;41.40;18.40;;;7.10;99.90;;;;;;5053921;28;20041;-79
2023/04/17 03:26:32;;;;;;;66.20;19.63;;;7.10;99.90;;;;;;5054449;28;20037;-79
2023/04/17 03:28:57;;;;;;;71.10;19.05;;;7.10;99.90;;;;;;5053616;28;20054;-79
2023/04/17 03:31:24;;;;;;;77.95;19.25;;;7.10;99.90;;;;;;5052449;28;20133;-79
2023/04/17 03:33:50;;;;;;;49.70;16.95;;;7.10;99.90;;;;;;5053432;28;20052;-79
2023/04/17 03:36:16;;;;;;;51.67;16.90;;;7.10;99.90;;;;;;5055084;28;20037;-79
2023/04/17 03:38:42;;;;;;;42.22;17.15;;;7.10;99.90;;;;;;5053280;28;20056;-79
2023/04/17 03:41:09;;;;;;;43.60;17.17;;;7.10;99.90;;;;;;5053730;28;20045;-79
2023/04/17 03:43:34;;;;;;;41.70;17.17;;;7.10;99.90;;;;;;5055080;28;20145;-79
2023/04/17 03:46:00;;;;;;;45.63;17.48;;;7.10;99.90;;;;;;5053737;28;20037;-79
2023/04/17 03:48:26;;;;;;;48.05;17.60;;;7.10;99.90;;;;;;5053505;28;20045;-79
2023/04/17 03:50:52;;;;;;;55.63;17.63;;;7.10;99.90;;;;;;5053826;28;20488;-79
2023/04/17 03:53:17;;;;;;;48.60;17.90;;;7.10;99.90;;;;;;5054860;28;20037;-79
2023/04/17 03:55:43;;;;;;;65.50;19.20;;;7.10;99.90;;;;;;5054289;28;20044;-79
2023/04/17 03:58:09;;;;;;;55.90;19.35;;;7.10;99.90;;;;;;5054106;28;20044;-79
2023/04/17 04:00:36;;;;;;;48.80;19.23;;;7.10;99.90;;;;;;5052895;28;20323;-79
2023/04/17 04:03:02;;;;;;;38.33;19.10;;;7.20;99.90;;;;;;5053073;28;20357;-79
2023/04/17 04:05:28;;;;;;;101.22;22.02;;;7.20;99.90;;;;;;5052987;28;20041;-79
2023/04/17 04:07:54;;;;;;;87.47;20.92;;;7.20;99.90;;;;;;5052220;28;20041;-79
2023/04/17 04:10:20;;;;;;;102.15;21.65;;;7.20;99.90;;;;;;5054250;28;20504;-79
2023/04/17 04:12:46;;;;;;;84.63;20.15;;;7.10;99.90;;;;;;5052929;28;20041;-79
2023/04/17 04:15:11;;;;;;;82.80;20.30;;;7.10;99.90;;;;;;5053195;28;20036;-79
2023/04/17 04:17:37;;;;;;;88.80;19.73;;;7.10;99.90;;;;;;5052647;28;20576;-79
2023/04/17 04:20:03;;;;;;;66.35;20.25;;;7.00;99.90;;;;;;5053065;28;20548;-79
2023/04/17 04:22:29;;;;;;;104.25;19.25;;;7.00;99.90;;;;;;5052900;28;20527;-78
2023/04/17 04:24:55;;;;;;;55.38;18.25;;;7.00;99.90;;;;;;5052531;28;20045;-79
2023/04/17 04:27:21;;;;;;;92.07;19.10;;;7.00;99.90;;;;;;5053908;28;20041;-79
2023/04/17 04:29:48;;;;;;;96.43;18.50;;;7.00;99.90;;;;;;5052925;28;20174;-79
2023/04/17 04:32:14;;;;;;;83.03;19.30;;;7.00;99.90;;;;;;5053165;28;20045;-79
2023/04/17 04:34:40;;;;;;;75.80;18.42;;;7.00;99.90;;;;;;5051692;28;20118;-79
2023/04/17 04:37:07;;;;;;;117.80;19.85;;;7.10;99.90;;;;;;5052911;28;20079;-79
2023/04/17 04:39:32;;;;;;;62.97;18.48;;;7.10;99.90;;;;;;5053910;28;20056;-79
2023/04/17 04:42:04;;;;;;;106.45;19.48;;;7.10;99.90;;;;;;5053934;28;20342;-79
2023/04/17 04:44:30;;;;;;;86.18;17.85;;;7.20;99.90;;;;;;5052808;28;20041;-79
2023/04/17 04:46:56;;;;;;;36.08;18.10;;;7.10;99.90;;;;;;5052672;28;20045;-79
2023/04/17 04:49:21;;;;;;;52.10;19.13;;;7.20;99.90;;;;;;5051863;28;20063;-79
2023/04/17 04:51:47;;;;;;;50.17;18.58;;;7.20;99.90;;;;;;5053598;28;20064;-79
2023/04/17 04:54:12;;;;;;;34.03;18.73;;;7.30;99.90;;;;;;5053391;28;20045;-79
2023/04/17 04:56:38;;;;;;;64.03;19.92;;;7.30;99.90;;;;;;5052468;28;20120;-79
2023/04/17 04:59:04;;;;;;;44.67;20.63;;;7.30;99.90;;;;;;5071868;28;20123;-79
2023/04/17 05:01:30;;;;;;;78.50;21.92;;;7.30;99.90;;;;;;5057808;28;20116;-79
2023/04/17 05:03:55;;;;;;;53.05;21.40;;;7.30;99.90;;;;;;5051810;28;20048;-79
2023/04/17 05:06:22;;;;;;;58.60;22.38;;;7.30;99.90;;;;;;5052463;28;20076;-79
2023/04/17 05:08:47;;;;;;;47.45;22.00;;;7.20;99.90;;;;;;5053301;28;20134;-79
2023/04/17 05:11:14;;;;;;;67.28;23.05;;;7.20;99.90;;;;;;5052347;28;20497;-79
2023/04/17 05:13:39;;;;;;;77.28;23.35;;;7.30;99.90;;;;;;5053098;28;20049;-79
2023/04/17 05:16:05;;;;;;;45.47;20.77;;;7.30;99.90;;;;;;5053220;28;20040;-79
2023/04/17 05:18:31;;;;;;;41.90;20.40;;;7.40;99.90;;;;;;5051606;28;20051;-79
2023/04/17 05:20:56;;;;;;;80.28;22.17;;;7.30;99.90;;;;;;5053640;28;20080;-80
2023/04/17 05:23:22;;;;;;;39.55;20.80;;;7.30;99.90;;;;;;5053384;28;20037;-79
2023/04/17 05:25:48;;;;;;;52.60;19.48;;;7.40;99.90;;;;;;5051288;28;20040;-79
2023/04/17 05:28:14;;;;;;;40.08;20.13;;;7.40;99.90;;;;;;5051510;28;20108;-79
2023/04/17 05:30:39;;;;;;;42.13;19.48;;;7.40;99.90;;;;;;5052083;28;20041;-79
2023/04/17 05:33:05;;;;;;;54.10;21.77;;;7.40;99.90;;;;;;5053646;28;20045;-79
2023/04/17 05:35:31;;;;;;;55.03;20.67;;;7.40;99.90;;;;;;5054438;28;20080;-79
2023/04/17 05:37:56;;;;;;;39.55;20.45;;;7.40;99.90;;;;;;5051052;28;20053;-79
2023/04/17 05:40:22;;;;;;;35.95;20.02;;;7.50;99.90;;;;;;5051984;28;20167;-79
2023/04/17 05:42:47;;;;;;;36.40;19.85;;;7.60;99.90;;;;;;5051851;28;20045;-79
2023/04/17 05:45:14;;;;;;;37.55;20.80;;;7.60;99.90;;;;;;5052071;28;20408;-79
2023/04/17 05:47:40;;;;;;;36.83;20.42;;;7.60;99.90;;;;;;5052898;28;20040;-79
2023/04/17 05:50:07;;;;;;;37.75;20.65;;;7.70;99.90;;;;;;5051239;28;20047;-79
2023/04/17 05:52:32;;;;;;;39.22;20.80;;;7.70;99.90;;;;;;5052656;28;20036;-79
2023/04/17 05:54:58;;;;;;;39.88;20.50;;;7.80;99.90;;;;;;5051458;28;20090;-78
2023/04/17 05:57:23;;;;;;;37.70;20.23;;;7.80;99.90;;;;;;5051095;28;20053;-79
2023/04/17 05:59:49;;;;;;;35.25;19.25;;;7.90;99.90;;;;;;5051907;28;20040;-79
2023/04/17 06:02:16;;;;;;;34.15;18.50;;;7.90;99.90;;;;;;5051381;28;20127;-79
2023/04/17 06:04:42;;;;;;;33.30;18.40;;;7.90;99.90;;;;;;5052903;28;20041;-79
2023/04/17 06:07:09;;;;;;;34.25;18.60;;;8.00;99.90;;;;;;5052038;28;20124;-79
2023/04/17 06:09:35;;;;;;;32.55;18.65;;;8.00;99.90;;;;;;5052697;28;20072;-79
2023/04/17 06:12:01;;;;;;;34.35;19.67;;;8.10;99.90;;;;;;5051247;28;20076;-79
2023/04/17 06:14:27;;;;;;;36.88;19.08;;;8.10;99.90;;;;;;5050352;28;20044;-80
2023/04/17 06:16:52;;;;;;;33.47;18.45;;;8.10;99.90;;;;;;5052653;28;20047;-80
2023/04/17 06:19:18;;;;;;;34.88;19.10;;;8.10;99.90;;;;;;5052516;28;20397;-79
2023/04/17 06:21:44;;;;;;;38.67;19.75;;;8.10;99.90;;;;;;5051472;28;20060;-79
2023/04/17 06:24:09;;;;;;;32.28;18.88;;;8.00;99.90;;;;;;5051144;28;20040;-80
2023/04/17 06:26:35;;;;;;;35.58;19.38;;;8.00;99.90;;;;;;5051740;28;20500;-80
2023/04/17 06:29:01;;;;;;;38.38;19.35;;;8.10;99.90;;;;;;5050068;28;20045;-79
2023/04/17 06:31:26;;;;;;;32.85;17.40;;;8.10;99.90;;;;;;5051382;28;20124;-80
2023/04/17 06:33:52;;;;;;;32.42;17.98;;;8.10;99.90;;;;;;5052476;28;20044;-80
2023/04/17 06:36:17;;;;;;;33.33;18.30;;;8.20;99.90;;;;;;5050918;28;20041;-80
2023/04/17 06:38:43;;;;;;;33.40;18.95;;;8.20;99.90;;;;;;5050798;28;20045;-79
2023/04/17 06:41:08;;;;;;;31.08;17.98;;;8.30;99.90;;;;;;5050418;28;20110;-80
2023/04/17 06:43:34;;;;;;;33.58;18.77;;;8.30;99.90;;;;;;5051292;28;20501;-79
2023/04/17 06:46:00;;;;;;;31.38;17.95;;;8.40;99.90;;;;;;5051144;28;20433;-80
2023/04/17 06:48:25;;;;;;;29.55;17.83;;;8.50;99.90;;;;;;5050686;28;20037;-79
2023/04/17 06:50:51;;;;;;;32.17;18.17;;;8.60;99.90;;;;;;5051553;28;20121;-79
2023/04/17 06:53:16;;;;;;;30.83;18.63;;;8.70;99.90;;;;;;5051024;28;20161;-80
2023/04/17 06:55:42;;;;;;;27.73;17.45;;;8.80;99.90;;;;;;5050912;28;20086;-80
2023/04/17 06:58:08;;;;;;;31.70;18.80;;;8.90;99.90;;;;;;5052036;28;20040;-79
2023/04/17 07:00:34;;;;;;;27.92;18.02;;;9.00;99.90;;;;;;5054785;28;20049;-80
2023/04/17 07:03:01;;;;;;;28.95;17.77;;;9.10;99.90;;;;;;5050682;28;20052;-80
2023/04/17 07:05:27;;;;;;;26.75;17.90;;;9.20;99.90;;;;;;5050892;28;20090;-80
2023/04/17 07:07:54;;;;;;;28.25;18.58;;;9.20;99.90;;;;;;5050287;28;20053;-80
2023/04/17 07:10:19;;;;;;;29.63;18.10;;;9.30;99.90;;;;;;5052315;28;20051;-80
2023/04/17 07:12:45;;;;;;;28.88;18.90;;;9.40;99.90;;;;;;5052363;28;20556;-80
2023/04/17 07:15:11;;;;;;;28.45;18.05;;;9.40;99.90;;;;;;5051000;28;20127;-80
2023/04/17 07:17:36;;;;;;;30.25;18.40;;;9.50;99.90;;;;;;5051686;28;20083;-80
2023/04/17 07:20:04;;;;;;;26.30;17.98;;;9.60;99.90;;;;;;5050921;28;20041;-80
2023/04/17 07:22:30;;;;;;;25.30;17.98;;;9.70;99.90;;;;;;5050672;28;20041;-80
2023/04/17 07:24:56;;;;;;;27.48;17.92;;;9.80;99.90;;;;;;5050239;28;20417;-80
2023/04/17 07:27:21;;;;;;;25.90;17.35;;;9.80;99.90;;;;;;5053785;28;20441;-80
2023/04/17 07:29:53;;;;;;;26.75;19.35;;;9.80;99.90;;;;;;5055364;28;20059;-80
2023/04/17 07:32:23;;;;;;;29.00;18.73;;;9.70;99.90;;;;;;5055972;28;20037;-80
2023/04/17 07:34:49;;;;;;;31.25;20.13;;;9.70;99.90;;;;;;5056417;28;20040;-80
2023/04/17 07:37:14;;;;;;;28.08;19.58;;;9.60;99.90;;;;;;5056239;28;20434;-80
2023/04/17 07:39:40;;;;;;;28.42;20.35;;;9.60;99.90;;;;;;5054508;28;20040;-80
2023/04/17 07:42:07;;;;;;;30.70;19.75;;;9.70;99.90;;;;;;5055645;28;20067;-80
2023/04/17 07:44:34;;;;;;;30.75;20.17;;;9.80;99.90;;;;;;5054232;28;20041;-80
2023/04/17 07:47:00;;;;;;;29.98;21.90;;;9.80;99.90;;;;;;5054538;28;20037;-80
2023/04/17 07:49:25;;;;;;;33.13;22.90;;;9.70;99.90;;;;;;5053549;28;20041;-80
2023/04/17 07:51:51;;;;;;;30.90;22.38;;;9.80;99.90;;;;;;5052562;28;20515;-80
2023/04/17 07:54:16;;;;;;;31.98;21.42;;;9.80;99.90;;;;;;5036899;28;20045;-80
2023/04/17 07:56:45;;;;;;;29.50;21.35;;;9.80;99.90;;;;;;5055321;28;20039;-80
2023/04/17 07:59:11;;;;;;;30.13;21.52;;;9.90;99.90;;;;;;5053916;28;20577;-80
2023/04/17 08:01:36;;;;;;;31.60;22.15;;;10.00;99.90;;;;;;5053085;28;20512;-80
2023/04/17 08:04:02;;;;;;;29.00;21.85;;;10.20;99.90;;;;;;5052830;28;20041;-80
2023/04/17 08:06:28;;;;;;;30.17;21.10;;;10.40;99.90;;;;;;5054731;28;20045;-81
2023/04/17 08:08:53;;;;;;;30.92;22.63;;;10.40;99.90;;;;;;5055595;28;20083;-80
2023/04/17 08:11:19;;;;;;;26.50;20.08;;;10.40;99.90;;;;;;5054261;28;20492;-80
2023/04/17 08:13:44;;;;;;;27.90;20.60;;;10.40;99.90;;;;;;5055085;28;20037;-81
2023/04/17 08:16:10;;;;;;;28.27;19.73;;;10.40;99.90;;;;;;5054227;28;20458;-80
2023/04/17 08:18:36;;;;;;;28.63;20.08;;;10.40;99.90;;;;;;5056283;28;20116;-80
2023/04/17 08:21:03;;;;;;;27.05;20.95;;;10.40;99.90;;;;;;5054001;28;20523;-81
2023/04/17 08:23:29;;;;;;;27.05;20.77;;;10.50;99.90;;;;;;5054246;28;20060;-80
2023/04/17 08:25:54;;;;;;;25.73;19.40;;;10.50;99.90;;;;;;5053124;28;20045;-80
2023/04/17 08:28:20;;;;;;;25.33;19.58;;;10.60;99.90;;;;;;5053108;28;20052;-80
2023/04/17 08:30:45;;;;;;;25.70;19.40;;;10.70;99.90;;;;;;5053418;28;20041;-80
2023/04/17 08:33:12;;;;;;;26.67;20.77;;;10.80;99.90;;;;;;5055053;28;20045;-80
2023/04/17 08:35:37;;;;;;;28.10;20.10;;;10.80;99.90;;;;;;5055449;28;20159;-80
2023/04/17 08:38:03;;;;;;;27.80;21.15;;;10.70;99.90;;;;;;5051926;28;20076;-80
2023/04/17 08:40:29;;;;;;;27.75;21.05;;;10.70;99.90;;;;;;5052487;28;20135;-80
2023/04/17 08:42:54;;;;;;;25.67;21.15;;;10.70;99.90;;;;;;5052974;28;20040;-80
2023/04/17 08:45:23;;;;;;;28.10;20.90;;;10.90;99.90;;;;;;5054569;28;20029;-80
2023/04/17 08:47:48;;;;;;;26.75;20.90;;;11.10;99.90;;;;;;5054676;28;20461;-80
2023/04/17 08:50:16;;;;;;;25.88;17.92;;;11.20;99.90;;;;;;5053009;28;20040;-80
2023/04/17 08:52:44;;;;;;;25.25;18.60;;;11.20;99.90;;;;;;5053185;28;20041;-80
2023/04/17 08:55:15;;;;;;;23.52;18.52;;;11.40;99.90;;;;;;5052797;28;20500;-80
2023/04/17 08:58:02;;;;;;;24.83;18.85;;;11.50;99.90;;;;;;5052826;28;20088;-80
2023/04/17 09:00:30;;;;;;;23.48;18.27;;;11.40;99.90;;;;;;5051239;28;20045;-80
2023/04/17 09:02:58;;;;;;;22.23;17.52;;;11.30;99.90;;;;;;5052379;28;20048;-80
2023/04/17 09:05:26;;;;;;;21.38;17.05;;;11.20;99.90;;;;;;5053224;28;20043;-80
2023/04/17 09:08:19;;;;;;;20.88;16.98;;;11.30;99.90;;;;;;5053808;28;20104;-80
2023/04/17 09:10:50;;;;;;;22.70;16.85;;;11.50;99.90;;;;;;5053534;28;20037;-80
2023/04/17 09:13:17;;;;;;;23.20;17.77;;;11.60;99.90;;;;;;5052893;28;20033;-80
2023/04/17 09:15:45;;;;;;;24.23;16.60;;;11.70;99.90;;;;;;5052877;28;20077;-80
2023/04/17 09:18:23;;;;;;;20.60;15.65;;;11.80;99.90;;;;;;5053565;28;20044;-80
2023/04/17 09:20:50;;;;;;;20.90;16.55;;;12.00;99.90;;;;;;5053848;28;20040;-80
2023/04/17 09:23:16;;;;;;;19.90;15.98;;;12.30;99.90;;;;;;5053719;28;20049;-80
2023/04/17 09:25:41;;;;;;;22.52;16.33;;;12.50;99.90;;;;;;5052361;28;20037;-80
2023/04/17 09:28:13;;;;;;;21.20;16.23;;;12.60;99.90;;;;;;5052466;28;20047;-80
2023/04/17 09:30:39;;;;;;;19.35;16.13;;;12.70;99.90;;;;;;5052294;28;20036;-80
2023/04/17 09:33:07;;;;;;;25.98;17.20;;;13.00;99.90;;;;;;5053934;28;20393;-80
2023/04/17 09:35:33;;;;;;;21.38;17.50;;;13.10;99.90;;;;;;5054379;28;20090;-80
2023/04/17 09:37:59;;;;;;;20.77;16.17;;;13.20;99.90;;;;;;5052690;28;20130;-80
2023/04/17 09:40:26;;;;;;;25.95;16.48;;;13.30;99.90;;;;;;5055310;28;20440;-81
2023/04/17 09:42:57;;;;;;;20.45;16.38;;;13.30;99.90;;;;;;5053293;28;20071;-81
2023/04/17 09:45:24;;;;;;;21.08;16.05;;;13.10;99.90;;;;;;5054282;28;20033;-80
2023/04/17 09:47:54;;;;;;;20.73;14.73;;;13.20;99.90;;;;;;5052186;28;20049;-80
2023/04/17 09:50:21;;;;;;;22.25;15.00;;;13.20;99.90;;;;;;5052228;28;20124;-81
2023/04/17 09:52:56;;;;;;;19.65;15.70;;;13.40;99.90;;;;;;5052615;28;20077;-80
2023/04/17 09:55:23;;;;;;;25.63;15.65;;;13.60;99.90;;;;;;5052110;28;20564;-80
2023/04/17 09:57:56;;;;;;;19.42;15.15;;;13.90;99.90;;;;;;5053309;28;20436;-80
2023/04/17 10:00:28;;;;;;;19.05;15.20;;;13.90;99.90;;;;;;5052436;28;20069;-80
2023/04/17 10:02:55;;;;;;;19.90;15.57;;;14.00;99.90;;;;;;5051905;28;20080;-80
2023/04/17 10:05:23;;;;;;;17.42;13.88;;;14.10;99.90;;;;;;5053636;28;20419;-80
2023/04/17 10:07:49;;;;;;;21.25;15.32;;;14.30;99.90;;;;;;5052120;28;20121;-80
2023/04/17 10:10:29;;;;;;;18.05;14.73;;;14.20;99.90;;;;;;5053140;28;20492;-80
2023/04/17 10:13:10;;;;;;;18.42;14.75;;;14.20;99.90;;;;;;5051909;28;20123;-80
2023/04/17 10:15:36;;;;;;;21.77;15.52;;;14.30;99.90;;;;;;5050585;28;20037;-80
2023/04/17 10:18:24;;;;;;;18.98;14.40;;;14.60;99.90;;;;;;5051932;28;20464;-81
2023/04/17 10:20:52;;;;;;;20.17;15.15;;;14.80;99.90;;;;;;5053812;28;20069;-81
2023/04/17 10:23:29;;;;;;;17.35;14.05;;;14.80;99.90;;;;;;5051881;28;20072;-80
2023/04/17 10:26:26;;;;;;;18.75;13.80;;;14.90;99.90;;;;;;5053502;28;20033;-81
2023/04/17 10:28:53;;;;;;;17.65;14.43;;;15.00;99.90;;;;;;5052380;28;20045;-81
2023/04/17 10:31:19;;;;;;;15.75;12.70;;;15.00;99.90;;;;;;5051767;28;20041;-81
2023/04/17 10:33:50;;;;;;;17.52;13.50;;;15.00;99.90;;;;;;5054184;28;20086;-81
2023/04/17 10:36:38;;;;;;;16.23;12.80;;;15.00;99.90;;;;;;5054521;28;20408;-81
2023/04/17 10:39:15;;;;;;;16.08;12.60;;;15.10;99.90;;;;;;5043703;28;20518;-81
2023/04/17 10:42:03;;;;;;;21.05;12.98;;;15.40;99.90;;;;;;5052379;28;20439;-81
2023/04/17 10:44:43;;;;;;;16.88;13.30;;;15.50;99.90;;;;;;5051174;28;20041;-81
2023/04/17 10:47:10;;;;;;;18.92;13.32;;;15.60;99.90;;;;;;5052195;28;20084;-81
2023/04/17 10:49:59;;;;;;;16.08;13.23;;;15.80;99.90;;;;;;5051979;28;20036;-81
2023/04/17 10:52:43;;;;;;;15.95;13.48;;;15.90;99.90;;;;;;5052617;28;20048;-81
2023/04/17 10:55:22;;;;;;;18.17;13.50;;;16.10;99.90;;;;;;5051898;28;20048;-81
2023/04/17 10:57:57;;;;;;;21.38;13.60;;;16.10;99.90;;;;;;5071672;28;20055;-81
2023/04/17 11:00:50;;;;;;;17.02;13.77;;;16.00;99.90;;;;;;5071340;28;20293;-81
2023/04/17 11:03:16;;;;;;;19.63;14.27;;;15.80;99.90;;;;;;5068133;28;20131;-81
2023/04/17 11:05:46;;;;;;;19.58;14.00;;;15.40;99.90;;;;;;5077142;28;20068;-81
2023/04/17 11:08:12;;;;;;;16.02;12.82;;;15.60;99.90;;;;;;5075911;28;20123;-81
2023/04/17 11:10:39;;;;;;;18.08;13.55;;;15.70;99.90;;;;;;5066167;28;20052;-80
2023/04/17 11:13:05;;;;;;;17.38;13.40;;;15.90;99.90;;;;;;5055731;28;20083;-80
2023/04/17 11:15:35;;;;;;;18.58;14.05;;;16.10;99.90;;;;;;5056623;28;20036;-81
2023/04/17 11:18:02;;;;;;;18.08;13.35;;;16.20;99.90;;;;;;5055575;28;20049;-80
2023/04/17 11:20:31;;;;;;;17.52;13.35;;;16.40;99.90;;;;;;5055889;28;20132;-81
2023/04/17 11:23:02;;;;;;;17.88;12.70;;;16.50;99.90;;;;;;5056074;28;20489;-81
2023/04/17 11:25:30;;;;;;;15.68;12.30;;;16.20;99.90;;;;;;5057004;28;20037;-81
2023/04/17 11:28:04;;;;;;;18.33;13.05;;;16.20;99.90;;;;;;5055593;28;20795;-81
2023/04/17 11:30:33;;;;;;;18.80;13.10;;;16.60;99.90;;;;;;5055682;28;20040;-81
2023/04/17 11:33:06;;;;;;;17.88;14.70;;;16.60;99.90;;;;;;5056555;28;20112;-81
2023/04/17 11:35:37;;;;;;;18.13;12.68;;;16.40;99.90;;;;;;5055320;28;20036;-82
2023/04/17 11:38:19;;;;;;;15.88;12.95;;;16.80;99.90;;;;;;5054831;28;20055;-81
2023/04/17 11:40:57;;;;;;;18.13;13.40;;;16.80;99.90;;;;;;5055709;28;20037;-82
2023/04/17 11:43:24;;;;;;;17.67;13.52;;;16.70;99.90;;;;;;5055630;28;20051;-81
2023/04/17 11:45:51;;;;;;;16.77;12.80;;;16.30;99.90;;;;;;5054698;28;20048;-81
2023/04/17 11:48:23;;;;;;;16.45;12.88;;;16.50;99.90;;;;;;5055929;28;20103;-81
2023/04/17 11:50:52;;;;;;;16.70;12.48;;;16.80;99.90;;;;;;5056063;28;20041;-81
2023/04/17 11:53:18;;;;;;;15.48;12.75;;;17.30;99.90;;;;;;5055639;28;20607;-82
2023/04/17 11:55:44;;;;;;;15.80;12.05;;;17.40;99.90;;;;;;5055375;28;20048;-81
2023/04/17 11:58:11;;;;;;;14.88;12.30;;;17.80;99.90;;;;;;5054151;28;20037;-81
2023/04/17 12:00:38;;;;;;;14.65;12.35;;;18.20;99.90;;;;;;5055002;28;20045;-81
2023/04/17 12:03:31;;;;;;;17.40;13.48;;;18.50;99.90;;;;;;5056468;28;20090;-82
2023/04/17 12:05:58;;;;;;;15.35;12.32;;;18.50;99.90;;;;;;5055659;28;20049;-81
2023/04/17 12:08:24;;;;;;;15.93;12.13;;;18.60;99.90;;;;;;5054361;28;20116;-81
2023/04/17 12:10:49;;;;;;;15.73;12.85;;;18.40;99.90;;;;;;5055445;28;20554;-81
2023/04/17 12:13:15;;;;;;;16.23;13.27;;;17.80;99.90;;;;;;5054701;28;20037;-81
2023/04/17 12:15:40;;;;;;;16.42;13.02;;;17.40;99.90;;;;;;5054199;28;20115;-81
2023/04/17 12:18:07;;;;;;;17.45;12.30;;;17.40;99.90;;;;;;5055596;28;20048;-82
2023/04/17 12:20:36;;;;;;;15.85;12.35;;;17.40;99.90;;;;;;5055155;28;20084;-81
2023/04/17 12:23:03;;;;;;;15.95;11.52;;;17.60;99.90;;;;;;5055277;28;20396;-81
2023/04/17 12:25:30;;;;;;;16.60;12.63;;;18.00;99.90;;;;;;5054920;28;20045;-82
2023/04/17 12:27:57;;;;;;;15.50;11.50;;;18.10;99.90;;;;;;5053373;28;20052;-82
2023/04/17 12:30:24;;;;;;;14.13;10.98;;;18.00;99.90;;;;;;5053511;28;20049;-83
2023/04/17 12:32:51;;;;;;;16.27;12.25;;;18.20;99.90;;;;;;5053637;28;20056;-82
2023/04/17 12:35:20;;;;;;;17.83;12.73;;;18.30;99.90;;;;;;5052853;28;20052;-81